Portland, North Dakota
Current Conditions -  °F | °C
As of 8:53 PM on Friday 21 Nov 2014 (Local Time) from KGFK Reporting Station
Few Clouds Few Clouds  
Wind Chill: 23°   Ceiling: Unl
Heat Index: 31°   Visibility: 10mi
Dew Point: 25°   Wind: 9mph
Humidity: 79%   Direction: 220°SW
Pressure: 29.6"   Gusts: NA
Location:  47.5°N, 97.37°W
Report Text: KGFK 220253Z 22008KT 10SM FEW200 M01/M04 A2960 RMK AO2 SLP038 T10061039 56009
Loading
Personal Weather Stations






























Interactive Weather Map New forecast layout! Learn more

10-Day Weather Forecast

Advertisements
Track Severe Weather on mobile